createdAt,value
2023-02-17T00:00:50.356Z,1024.2
2023-02-17T00:06:56.348Z,1024.2
2023-02-17T00:13:01.763Z,1024.2
2023-02-17T00:19:07.551Z,1024.2
2023-02-17T00:25:13.529Z,1024.1
2023-02-17T00:31:19.588Z,1024.1
2023-02-17T00:37:25.719Z,1024.1
2023-02-17T00:43:31.247Z,1024.1
2023-02-17T00:49:37.370Z,1024.2
2023-02-17T00:55:42.961Z,1024.2
2023-02-17T01:01:49.180Z,1024.2
2023-02-17T01:07:54.721Z,1024.2
2023-02-17T01:13:59.873Z,1024.1
2023-02-17T01:20:06.065Z,1024.1
2023-02-17T01:26:11.316Z,1024.1
2023-02-17T01:32:16.890Z,1024
2023-02-17T01:38:22.866Z,1024
2023-02-17T01:44:28.632Z,1024
2023-02-17T01:50:34.416Z,1023.9
2023-02-17T01:56:40.291Z,1023.9
2023-02-17T02:02:46.192Z,1023.9
2023-02-17T02:08:52.279Z,1023.9
2023-02-17T02:14:57.707Z,1023.9
2023-02-17T02:21:02.595Z,1023.8
2023-02-17T02:27:08.361Z,1023.8
2023-02-17T02:33:14.166Z,1023.9
2023-02-17T02:39:19.927Z,1023.9
2023-02-17T02:45:25.971Z,1024
2023-02-17T02:51:31.320Z,1024
2023-02-17T02:57:37.136Z,1023.9
2023-02-17T03:03:42.921Z,1023.8
2023-02-17T03:09:49.056Z,1023.8
2023-02-17T03:15:54.797Z,1023.7
2023-02-17T03:22:00.450Z,1023.7
2023-02-17T03:28:05.936Z,1023.6
2023-02-17T03:34:11.312Z,1023.5
2023-02-17T03:40:16.676Z,1023.6
2023-02-17T03:46:22.856Z,1023.5
2023-02-17T03:52:28.430Z,1023.4
2023-02-17T03:58:33.893Z,1023.5
2023-02-17T04:04:39.631Z,1023.5
2023-02-17T04:10:45.397Z,1023.5
2023-02-17T04:16:51.109Z,1023.4
2023-02-17T04:22:57.189Z,1023.4
2023-02-17T04:29:02.885Z,1023.3
2023-02-17T04:35:08.654Z,1023.4
2023-02-17T04:41:14.022Z,1023.4
2023-02-17T04:47:19.391Z,1023.4
2023-02-17T04:53:24.560Z,1023.3
2023-02-17T04:59:30.124Z,1023.3
2023-02-17T05:05:35.698Z,1023.2
2023-02-17T05:11:41.267Z,1023.2
2023-02-17T05:17:47.446Z,1023
2023-02-17T05:23:52.815Z,1023
2023-02-17T05:29:58.804Z,1023
2023-02-17T05:36:06.040Z,1023
2023-02-17T05:42:12.192Z,1023.1
2023-02-17T05:48:17.763Z,1023.1
2023-02-17T05:54:23.543Z,1023.1
2023-02-17T06:00:28.915Z,1023.1
2023-02-17T06:06:33.852Z,1023.1
2023-02-17T06:12:39.646Z,1023.2
2023-02-17T06:18:44.888Z,1023.2
2023-02-17T06:24:49.855Z,1023.3
2023-02-17T06:30:55.412Z,1023.3
2023-02-17T06:37:01.222Z,1023.5
2023-02-17T06:43:06.322Z,1023.5
2023-02-17T06:49:11.944Z,1023.5
2023-02-17T06:55:17.049Z,1023.3
2023-02-17T07:01:22.984Z,1023.3
2023-02-17T07:07:29.179Z,1023.3
2023-02-17T07:13:34.955Z,1023.3
2023-02-17T07:19:40.754Z,1023.3
2023-02-17T07:25:46.912Z,1023.2
2023-02-17T07:31:52.523Z,1023.4
2023-02-17T07:37:58.667Z,1023.4
2023-02-17T07:44:03.731Z,1023.5
2023-02-17T07:50:09.225Z,1023.5
2023-02-17T07:56:14.964Z,1023.5
2023-02-17T08:02:20.569Z,1023.5
2023-02-17T08:08:25.985Z,1023.6
2023-02-17T08:14:31.490Z,1023.6
2023-02-17T08:20:37.331Z,1023.5
2023-02-17T08:26:42.748Z,1023.5
2023-02-17T08:32:48.609Z,1023.5
2023-02-17T08:38:54.402Z,1023.5
2023-02-17T08:44:59.969Z,1023.6
2023-02-17T08:51:05.789Z,1023.6
2023-02-17T08:57:11.422Z,1023.6
2023-02-17T09:03:16.510Z,1023.8
2023-02-17T09:09:22.720Z,1023.7
2023-02-17T09:15:28.367Z,1023.9
2023-02-17T09:21:34.631Z,1023.9
2023-02-17T09:27:40.397Z,1023.8
2023-02-17T09:33:45.987Z,1023.8
2023-02-17T09:39:51.694Z,1023.8
2023-02-17T09:45:57.799Z,1023.8
2023-02-17T09:52:03.305Z,1023.9
2023-02-17T09:58:08.886Z,1023.9
2023-02-17T10:04:14.481Z,1023.9
2023-02-17T10:10:21.774Z,1024
2023-02-17T10:16:27.399Z,1023.9
2023-02-17T10:22:33.292Z,1023.9
2023-02-17T10:28:38.491Z,1023.8
2023-02-17T10:34:43.968Z,1023.9
2023-02-17T10:40:49.934Z,1023.9
2023-02-17T10:46:55.727Z,1023.8
2023-02-17T10:53:00.949Z,1023.8
2023-02-17T10:59:06.302Z,1023.9
2023-02-17T11:05:11.998Z,1023.7
2023-02-17T11:11:18.389Z,1023.7
2023-02-17T11:17:24.590Z,1023.8
2023-02-17T11:23:30.352Z,1023.6
2023-02-17T11:29:36.330Z,1023.6
2023-02-17T11:35:42.316Z,1023.6
2023-02-17T11:41:47.285Z,1023.5
2023-02-17T11:47:52.720Z,1023.5
2023-02-17T11:53:58.424Z,1023.3
2023-02-17T12:00:03.687Z,1023.1
2023-02-17T12:06:09.770Z,1023.2
2023-02-17T12:12:15.353Z,1023.1
2023-02-17T12:18:20.723Z,1023.1
2023-02-17T12:24:26.328Z,1023
2023-02-17T12:30:32.392Z,1022.9
2023-02-17T12:36:37.955Z,1023
2023-02-17T12:42:43.478Z,1022.9
2023-02-17T12:48:49.445Z,1023
2023-02-17T12:54:55.569Z,1022.9
2023-02-17T13:01:01.030Z,1023
2023-02-17T13:07:06.796Z,1023.2
2023-02-17T13:13:12.478Z,1023.1
2023-02-17T13:19:18.464Z,1023
2023-02-17T13:25:23.922Z,1022.9
2023-02-17T13:31:29.716Z,1023
2023-02-17T13:37:35.249Z,1022.9
2023-02-17T13:43:41.229Z,1022.9
2023-02-17T13:49:47.195Z,1023
2023-02-17T13:55:52.170Z,1023
2023-02-17T14:01:57.118Z,1023
2023-02-17T14:08:02.015Z,1023
2023-02-17T14:14:07.606Z,1023
2023-02-17T14:20:13.043Z,1023
2023-02-17T14:26:18.581Z,1023.1
2023-02-17T14:32:23.787Z,1023
2023-02-17T14:38:29.587Z,1023
2023-02-17T14:44:35.059Z,1023
2023-02-17T14:50:40.904Z,1023.1
2023-02-17T14:56:46.673Z,1023.1
2023-02-17T15:02:51.830Z,1023.1
2023-02-17T15:08:56.777Z,1023
2023-02-17T15:15:02.704Z,1023.2
2023-02-17T15:21:08.932Z,1023.1
2023-02-17T15:27:14.679Z,1023.2
2023-02-17T15:33:20.071Z,1023.1
2023-02-17T15:39:25.598Z,1023
2023-02-17T15:45:30.832Z,1023
2023-02-17T15:51:36.332Z,1023
2023-02-17T15:57:42.111Z,1022.8
2023-02-17T16:03:47.909Z,1022.9
2023-02-17T16:09:53.868Z,1022.9
2023-02-17T16:15:58.927Z,1022.8
2023-02-17T16:22:04.459Z,1022.9
2023-02-17T16:28:10.875Z,1022.9
2023-02-17T16:34:16.773Z,1022.9
2023-02-17T16:40:22.430Z,1023
2023-02-17T16:46:28.012Z,1023.1
2023-02-17T16:52:33.478Z,1023.3
2023-02-17T16:58:39.452Z,1023.2
2023-02-17T17:04:45.243Z,1023.1
2023-02-17T17:10:50.422Z,1023.2
2023-02-17T17:16:58.782Z,1023.2
2023-02-17T17:23:04.879Z,1023.2
2023-02-17T17:29:10.269Z,1023.2
2023-02-17T17:35:16.033Z,1023.2
2023-02-17T17:41:21.818Z,1023.3
2023-02-17T17:47:32.224Z,1023.3
2023-02-17T17:53:37.604Z,1023.4
2023-02-17T17:59:43.994Z,1023.3
2023-02-17T18:05:49.958Z,1023.3
2023-02-17T18:11:55.762Z,1023.2
2023-02-17T18:18:01.129Z,1023.1
2023-02-17T18:24:06.901Z,1023.2
2023-02-17T18:30:12.117Z,1023.1
2023-02-17T18:36:17.683Z,1023.1
2023-02-17T18:42:22.719Z,1023.2
2023-02-17T18:48:28.227Z,1023.3
2023-02-17T18:54:33.826Z,1023.1
2023-02-17T19:00:38.937Z,1023.1
2023-02-17T19:06:44.475Z,1023.1
2023-02-17T19:12:49.630Z,1023.2
2023-02-17T19:18:56.014Z,1023
2023-02-17T19:25:01.651Z,1023.1
2023-02-17T19:31:07.737Z,1023.2
2023-02-17T19:37:13.843Z,1023.1
2023-02-17T19:43:19.716Z,1023
2023-02-17T19:49:25.768Z,1023
2023-02-17T19:55:31.553Z,1023.1
2023-02-17T20:01:37.325Z,1023
2023-02-17T20:07:46.545Z,1023.1
2023-02-17T20:13:51.364Z,1023.1
2023-02-17T20:19:56.837Z,1023
2023-02-17T20:26:03.245Z,1023.1
2023-02-17T20:32:10.049Z,1023.3
2023-02-17T20:38:16.283Z,1023.3
2023-02-17T20:44:22.090Z,1023.5
2023-02-17T20:50:31.876Z,1023.7
2023-02-17T20:56:37.059Z,1023.8
2023-02-17T21:02:43.036Z,1024
2023-02-17T21:08:50.352Z,1024.1
2023-02-17T21:14:56.018Z,1024.1
2023-02-17T21:21:01.797Z,1024.2
2023-02-17T21:27:07.363Z,1024.1
2023-02-17T21:33:13.135Z,1024.1
2023-02-17T21:39:19.116Z,1024.1
2023-02-17T21:45:24.916Z,1024.1
2023-02-17T21:51:30.662Z,1024.2
2023-02-17T21:57:35.922Z,1024.3
2023-02-17T22:03:40.697Z,1024.2
2023-02-17T22:09:46.640Z,1024.2
2023-02-17T22:15:52.029Z,1024.1
2023-02-17T22:21:57.502Z,1024.2
2023-02-17T22:28:03.280Z,1024.2
2023-02-17T22:34:09.460Z,1024.2
2023-02-17T22:40:15.108Z,1024.2
2023-02-17T22:46:20.639Z,1024.2
2023-02-17T22:52:26.574Z,1024.2
2023-02-17T22:58:32.046Z,1024.2
2023-02-17T23:04:37.282Z,1024.3
2023-02-17T23:10:43.506Z,1024.3
2023-02-17T23:16:49.108Z,1024.3
2023-02-17T23:22:55.065Z,1024.4
2023-02-17T23:29:00.634Z,1024.5
2023-02-17T23:35:06.269Z,1024.5
2023-02-17T23:41:11.603Z,1024.4
2023-02-17T23:47:18.165Z,1024.5
2023-02-17T23:53:23.596Z,1024.5
2023-02-17T23:59:29.581Z,1024.5
